Time;durP1;ratioP1;P1;durP2;ratioP2;P2;SDS_P1;SDS_P2;PMS_P1;PMS_P2;Temp;Humidity;BMP_temperature;BMP_pressure;BME280_temperature;BME280_humidity;BME280_pressure;Samples;Min_cycle;Max_cycle;Signal;HPM_P1;HPM_P2
2023/04/24 00:01:29;;;;;;;;;;;;;;;12.46;73.43;97478.34;5018280;28;19927;-81
2023/04/24 00:03:54;;;;;;;;;;;;;;;12.52;73.26;97474.50;5024650;28;19920;-81
2023/04/24 00:06:20;;;;;;;;;;;;;;;12.44;73.02;97469.81;5020110;28;19932;-81
2023/04/24 00:08:45;;;;;;;;;;;;;;;12.42;73.60;97477.34;5006411;28;19921;-81
2023/04/24 00:11:10;;;;;;;;;;;;;;;12.18;74.21;97468.66;5013295;28;19921;-81
2023/04/24 00:13:36;;;;;;;;;;;;;;;12.04;74.72;97477.41;5029017;28;19925;-81
2023/04/24 00:16:02;;;;;;;;;;;;;;;12.26;74.09;97478.69;5018541;28;19964;-81
2023/04/24 00:18:27;;;;;;;;;;;;;;;12.15;74.37;97471.91;5024655;28;19928;-81
2023/04/24 00:20:52;;;;;;;;;;;;;;;12.26;73.91;97479.47;5027500;28;19928;-81
2023/04/24 00:23:17;;;;;;;;;;;;;;;12.13;73.83;97480.22;5026051;28;19921;-81
2023/04/24 00:25:43;;;;;;;;;;;;;;;11.98;74.66;97467.91;5027264;28;20268;-81
2023/04/24 00:28:09;;;;;;;;;;;;;;;12.20;74.03;97474.50;5032412;28;20392;-81
2023/04/24 00:30:34;;;;;;;;;;;;;;;11.65;75.52;97489.47;5010269;28;20297;-81
2023/04/24 00:33:00;;;;;;;;;;;;;;;12.00;74.43;97481.78;5014534;28;19936;-81
2023/04/24 00:35:25;;;;;;;;;;;;;;;12.20;73.93;97491.34;5023529;28;19929;-81
2023/04/24 00:37:50;;;;;;;;;;;;;;;12.07;74.17;97491.28;5030590;28;19925;-81
2023/04/24 00:40:15;;;;;;;;;;;;;;;12.15;73.83;97490.63;5027222;28;19921;-81
2023/04/24 00:42:41;;;;;;;;;;;;;;;12.04;74.48;97490.78;5028317;28;20379;-81
2023/04/24 00:45:07;;;;;;;;;;;;;;;12.00;73.98;97483.66;5026469;28;19929;-81
2023/04/24 00:47:33;;;;;;;;;;;;;;;11.93;73.94;97493.91;5023948;28;19971;-81
2023/04/24 00:49:58;;;;;;;;;;;;;;;12.09;73.69;97479.22;5033696;28;19916;-81
2023/04/24 00:52:24;;;;;;;;;;;;;;;12.11;73.49;97470.91;5009473;28;20000;-81
2023/04/24 00:54:49;;;;;;;;;;;;;;;12.14;73.26;97454.28;5025923;28;19925;-81
2023/04/24 00:57:15;;;;;;;;;;;;;;;11.92;73.57;97466.41;5007626;28;20337;-81
2023/04/24 00:59:41;;;;;;;;;;;;;;;11.71;74.40;97467.75;5026445;28;20008;-81
2023/04/24 01:02:07;;;;;;;;;;;;;;;11.97;73.48;97460.94;5022797;28;19921;-81
2023/04/24 01:04:32;;;;;;;;;;;;;;;11.95;73.31;97465.00;5024021;28;19925;-81
2023/04/24 01:06:58;;;;;;;;;;;;;;;11.95;73.04;97451.63;5029437;28;19995;-81
2023/04/24 01:09:24;;;;;;;;;;;;;;;12.07;72.90;97461.88;5028247;28;20008;-81
2023/04/24 01:11:49;;;;;;;;;;;;;;;12.15;72.52;97453.19;5030774;28;20005;-81
2023/04/24 01:14:14;;;;;;;;;;;;;;;12.11;72.36;97450.31;5026552;28;20325;-81
2023/04/24 01:16:41;;;;;;;;;;;;;;;12.17;72.29;97453.69;5025420;28;19929;-81
2023/04/24 01:19:06;;;;;;;;;;;;;;;12.13;71.88;97456.16;5021193;28;19925;-81
2023/04/24 01:21:33;;;;;;;;;;;;;;;12.10;72.54;97447.94;5028423;28;19917;-81
2023/04/24 01:23:58;;;;;;;;;;;;;;;12.07;72.25;97443.16;5020242;28;19925;-81
2023/04/24 01:26:25;;;;;;;;;;;;;;;12.10;72.37;97446.03;5029089;28;19925;-81
2023/04/24 01:28:50;;;;;;;;;;;;;;;12.04;72.57;97439.97;5009362;28;19966;-81
2023/04/24 01:31:16;;;;;;;;;;;;;;;11.82;72.95;97431.78;5023869;28;19964;-81
2023/04/24 01:33:42;;;;;;;;;;;;;;;11.97;72.69;97441.44;5027021;28;19983;-81
2023/04/24 01:36:08;;;;;;;;;;;;;;;11.91;72.36;97447.94;5024532;28;19921;-81
2023/04/24 01:38:33;;;;;;;;;;;;;;;11.88;72.26;97443.19;5024119;28;19925;-81
2023/04/24 01:40:58;;;;;;;;;;;;;;;11.88;72.66;97438.63;5015848;28;20008;-81
2023/04/24 01:43:24;;;;;;;;;;;;;;;11.79;72.56;97437.72;5016456;28;19921;-81
2023/04/24 01:45:49;;;;;;;;;;;;;;;11.87;72.36;97442.41;5021180;28;20392;-81
2023/04/24 01:48:14;;;;;;;;;;;;;;;11.83;72.74;97429.91;5019747;28;19925;-81
2023/04/24 01:50:40;;;;;;;;;;;;;;;11.86;72.56;97429.34;5018990;28;19926;-81
2023/04/24 01:53:05;;;;;;;;;;;;;;;11.75;72.94;97434.00;5018658;28;20020;-81
2023/04/24 01:55:30;;;;;;;;;;;;;;;11.79;72.89;97436.91;5019287;28;19980;-81
2023/04/24 01:57:56;;;;;;;;;;;;;;;11.82;72.84;97437.13;5021306;28;20380;-81
2023/04/24 02:00:24;;;;;;;;;;;;;;;11.71;73.10;97426.84;5024230;28;20028;-81
2023/04/24 02:02:49;;;;;;;;;;;;;;;11.80;72.55;97427.78;5023252;28;20024;-81
2023/04/24 02:05:15;;;;;;;;;;;;;;;11.73;72.58;97427.38;5019066;28;20028;-81
2023/04/24 02:07:40;;;;;;;;;;;;;;;11.77;72.85;97429.16;5025300;28;20652;-81
2023/04/24 02:10:05;;;;;;;;;;;;;;;11.87;72.27;97425.56;5005134;28;20079;-81
2023/04/24 02:12:31;;;;;;;;;;;;;;;11.64;73.15;97426.41;5004162;28;20203;-81
2023/04/24 02:14:56;;;;;;;;;;;;;;;11.55;72.93;97415.59;5024668;28;19921;-81
2023/04/24 02:17:21;;;;;;;;;;;;;;;11.70;72.49;97415.41;5023765;28;20019;-81
2023/04/24 02:19:46;;;;;;;;;;;;;;;11.69;72.79;97413.78;5021588;28;19925;-81
2023/04/24 02:22:12;;;;;;;;;;;;;;;11.68;72.58;97409.56;5019182;28;19924;-81
2023/04/24 02:24:37;;;;;;;;;;;;;;;11.66;72.74;97417.03;5042270;28;19921;-81
2023/04/24 02:27:03;;;;;;;;;;;;;;;11.62;72.67;97409.88;5022345;28;19925;-81
2023/04/24 02:29:28;;;;;;;;;;;;;;;11.69;72.63;97410.31;5026026;28;19917;-81
2023/04/24 02:31:53;;;;;;;;;;;;;;;11.69;72.78;97405.78;5017544;28;19925;-80
2023/04/24 02:34:18;;;;;;;;;;;;;;;11.74;72.30;97413.72;5019698;28;20319;-81
2023/04/24 02:36:44;;;;;;;;;;;;;;;11.75;72.10;97412.63;5021214;28;19935;-81
2023/04/24 02:39:09;;;;;;;;;;;;;;;11.61;72.60;97409.09;5022821;28;19917;-81
2023/04/24 02:41:34;;;;;;;;;;;;;;;11.50;73.30;97415.66;5021294;28;19925;-81
2023/04/24 02:43:59;;;;;;;;;;;;;;;11.53;73.16;97407.03;5018639;28;19940;-81
2023/04/24 02:46:25;;;;;;;;;;;;;;;11.58;73.59;97406.97;5019305;28;19933;-81
2023/04/24 02:48:50;;;;;;;;;;;;;;;11.66;73.31;97411.69;5012354;28;19925;-81
2023/04/24 02:51:15;;;;;;;;;;;;;;;11.64;73.11;97415.72;5018241;28;20078;-81
2023/04/24 02:53:41;;;;;;;;;;;;;;;11.77;72.80;97412.34;5023166;28;20012;-81
2023/04/24 02:56:06;;;;;;;;;;;;;;;11.74;72.66;97403.03;5027310;28;19921;-81
2023/04/24 02:58:31;;;;;;;;;;;;;;;11.71;73.20;97403.59;5004900;28;20372;-81
2023/04/24 03:00:56;;;;;;;;;;;;;;;11.75;72.99;97398.50;5022039;28;19939;-81
2023/04/24 03:03:22;;;;;;;;;;;;;;;11.77;73.28;97399.75;5025478;28;19987;-81
2023/04/24 03:05:47;;;;;;;;;;;;;;;11.74;73.08;97399.56;5028450;28;19961;-81
2023/04/24 03:08:12;;;;;;;;;;;;;;;11.73;73.36;97392.66;5008659;28;19929;-81
2023/04/24 03:10:37;;;;;;;;;;;;;;;11.70;72.79;97385.19;5025034;28;19921;-81
2023/04/24 03:13:03;;;;;;;;;;;;;;;11.52;74.37;97393.97;5025195;28;19929;-81
2023/04/24 03:15:28;;;;;;;;;;;;;;;11.71;73.48;97386.78;5029623;28;19969;-81
2023/04/24 03:17:53;;;;;;;;;;;;;;;11.71;73.71;97382.22;5018937;28;19921;-80
2023/04/24 03:20:18;;;;;;;;;;;;;;;11.63;73.62;97371.38;5024147;28;19956;-81
2023/04/24 03:22:44;;;;;;;;;;;;;;;11.69;73.75;97378.25;5021686;28;19932;-81
2023/04/24 03:25:09;;;;;;;;;;;;;;;11.74;73.46;97380.84;5027576;28;20294;-81
2023/04/24 03:27:35;;;;;;;;;;;;;;;11.71;74.07;97378.75;5021154;28;19932;-81
2023/04/24 03:30:00;;;;;;;;;;;;;;;11.66;74.27;97368.94;5017771;28;19929;-80
2023/04/24 03:32:26;;;;;;;;;;;;;;;11.66;74.18;97368.13;5018094;28;19924;-81
2023/04/24 03:34:51;;;;;;;;;;;;;;;11.76;73.81;97368.78;5018050;28;19929;-81
2023/04/24 03:37:16;;;;;;;;;;;;;;;11.62;74.49;97361.78;5024962;28;19928;-81
2023/04/24 03:39:42;;;;;;;;;;;;;;;11.61;74.42;97360.97;5023861;28;19917;-81
2023/04/24 03:42:08;;;;;;;;;;;;;;;11.57;74.74;97362.66;5021311;28;20024;-81
2023/04/24 03:44:33;;;;;;;;;;;;;;;11.63;74.52;97363.34;5008449;28;20006;-80
2023/04/24 03:46:58;;;;;;;;;;;;;;;11.67;74.12;97370.53;5023080;28;19980;-80
2023/04/24 03:49:24;;;;;;;;;;;;;;;11.58;74.84;97364.22;5019404;28;20278;-81
2023/04/24 03:51:50;;;;;;;;;;;;;;;11.36;75.63;97368.59;5006398;28;20391;-81
2023/04/24 03:54:15;;;;;;;;;;;;;;;11.59;74.20;97363.16;5020917;28;20377;-80
2023/04/24 03:56:41;;;;;;;;;;;;;;;11.58;74.25;97358.88;5019751;28;20388;-80
2023/04/24 03:59:06;;;;;;;;;;;;;;;11.60;74.15;97359.38;5020825;28;20008;-81
2023/04/24 04:01:31;;;;;;;;;;;;;;;11.52;74.33;97356.56;5021827;28;19917;-81
2023/04/24 04:03:56;;;;;;;;;;;;;;;11.42;74.61;97360.22;5029305;28;19929;-80
2023/04/24 04:06:21;;;;;;;;;;;;;;;11.48;74.46;97368.94;5009654;28;21099;-81
2023/04/24 04:08:47;;;;;;;;;;;;;;;11.55;74.35;97372.03;5027501;28;20020;-81
2023/04/24 04:11:12;;;;;;;;;;;;;;;11.54;74.58;97371.25;5013331;28;19928;-81
2023/04/24 04:13:37;;;;;;;;;;;;;;;11.55;74.63;97370.16;5010900;28;19931;-81
2023/04/24 04:16:02;;;;;;;;;;;;;;;11.29;75.43;97366.28;5031348;28;19928;-81
2023/04/24 04:18:28;;;;;;;;;;;;;;;11.25;76.11;97362.56;5025952;28;19913;-81
2023/04/24 04:20:53;;;;;;;;;;;;;;;11.41;75.55;97368.50;5021816;28;19928;-81
2023/04/24 04:23:18;;;;;;;;;;;;;;;11.38;75.21;97377.09;5014396;28;20372;-81
2023/04/24 04:25:43;;;;;;;;;;;;;;;11.46;74.70;97369.22;5010600;28;19925;-81
2023/04/24 04:28:09;;;;;;;;;;;;;;;11.38;75.80;97369.09;5024089;28;19933;-81
2023/04/24 04:30:34;;;;;;;;;;;;;;;11.48;75.14;97379.63;5026150;28;19929;-81
2023/04/24 04:33:00;;;;;;;;;;;;;;;11.57;74.91;97378.69;5023212;28;19925;-81
2023/04/24 04:35:25;;;;;;;;;;;;;;;11.55;74.64;97375.50;5020734;28;20272;-81
2023/04/24 04:37:51;;;;;;;;;;;;;;;11.52;74.99;97368.06;5029999;28;20011;-81
2023/04/24 04:40:16;;;;;;;;;;;;;;;11.56;75.13;97377.09;5028112;28;20296;-81
2023/04/24 04:42:42;;;;;;;;;;;;;;;11.45;75.74;97378.31;5017203;28;20020;-80
2023/04/24 04:45:11;;;;;;;;;;;;;;;11.30;75.90;97373.19;5024593;28;19921;-81
2023/04/24 04:47:36;;;;;;;;;;;;;;;11.37;75.91;97373.63;5026724;28;20300;-81
2023/04/24 04:50:03;;;;;;;;;;;;;;;11.54;75.60;97389.13;5022680;28;19917;-80
2023/04/24 04:52:29;;;;;;;;;;;;;;;11.45;75.75;97394.34;5022860;28;19981;-81
2023/04/24 04:54:54;;;;;;;;;;;;;;;11.41;75.98;97392.53;5015319;28;19972;-81
2023/04/24 04:57:20;;;;;;;;;;;;;;;11.47;75.43;97400.19;5023616;28;19983;-81
2023/04/24 04:59:45;;;;;;;;;;;;;;;11.48;75.38;97383.09;5022971;28;19971;-81
2023/04/24 05:02:11;;;;;;;;;;;;;;;11.44;75.66;97395.44;5011081;28;20036;-81
2023/04/24 05:04:36;;;;;;;;;;;;;;;11.40;75.78;97396.31;5030380;28;19928;-81
2023/04/24 05:07:01;;;;;;;;;;;;;;;11.38;75.76;97404.59;5029442;28;19925;-81
2023/04/24 05:09:29;;;;;;;;;;;;;;;11.38;76.19;97385.88;5015905;28;19975;-81
2023/04/24 05:11:55;;;;;;;;;;;;;;;11.42;76.05;97388.78;5030257;28;20438;-81
2023/04/24 05:14:20;;;;;;;;;;;;;;;11.49;75.11;97399.91;5026927;28;19921;-81
2023/04/24 05:16:45;;;;;;;;;;;;;;;11.55;75.52;97396.09;5030726;28;19921;-81
2023/04/24 05:19:11;;;;;;;;;;;;;;;11.56;75.54;97400.34;5031830;28;19928;-80
2023/04/24 05:21:37;;;;;;;;;;;;;;;11.54;75.15;97400.63;5032351;28;20395;-80
2023/04/24 05:24:02;;;;;;;;;;;;;;;11.53;75.21;97399.03;5026102;28;19928;-81
2023/04/24 05:26:27;;;;;;;;;;;;;;;11.49;75.85;97402.59;5033028;28;20078;-81
2023/04/24 05:28:52;;;;;;;;;;;;;;;11.46;75.62;97401.28;5024531;28;19944;-80
2023/04/24 05:31:18;;;;;;;;;;;;;;;11.54;75.72;97395.28;5027064;28;19972;-81
2023/04/24 05:33:43;;;;;;;;;;;;;;;11.49;75.54;97395.34;5031677;28;20014;-80
2023/04/24 05:36:08;;;;;;;;;;;;;;;11.50;75.71;97399.63;5008695;28;19931;-81
2023/04/24 05:38:33;;;;;;;;;;;;;;;11.63;75.31;97406.91;5027162;28;20365;-81
2023/04/24 05:40:59;;;;;;;;;;;;;;;11.64;75.48;97410.38;5010826;28;20276;-81
2023/04/24 05:43:25;;;;;;;;;;;;;;;11.59;75.54;97416.59;5025777;28;19944;-80
2023/04/24 05:45:50;;;;;;;;;;;;;;;11.62;75.26;97413.31;5031881;28;19921;-81
2023/04/24 05:48:15;;;;;;;;;;;;;;;11.50;75.54;97414.84;5030666;28;19929;-80
2023/04/24 05:50:41;;;;;;;;;;;;;;;11.64;75.19;97424.53;5029147;28;20112;-81
2023/04/24 05:53:07;;;;;;;;;;;;;;;11.51;75.65;97427.16;5031539;28;19925;-80
2023/04/24 05:55:32;;;;;;;;;;;;;;;11.46;75.50;97420.00;5033595;28;19928;-81
2023/04/24 05:57:57;;;;;;;;;;;;;;;11.71;75.08;97418.84;5038328;28;19917;-81
2023/04/24 06:00:23;;;;;;;;;;;;;;;11.65;75.66;97415.44;5039284;28;19921;-81
2023/04/24 06:02:49;;;;;;;;;;;;;;;11.69;75.41;97413.78;5051207;28;19917;-81
2023/04/24 06:05:14;;;;;;;;;;;;;;;11.75;74.68;97427.91;5038546;28;19929;-81
2023/04/24 06:07:40;;;;;;;;;;;;;;;11.75;74.92;97433.25;5032494;28;19925;-80
2023/04/24 06:10:05;;;;;;;;;;;;;;;11.67;75.13;97429.34;5026787;28;20027;-81
2023/04/24 06:12:31;;;;;;;;;;;;;;;11.67;75.02;97429.34;5015766;28;19929;-81
2023/04/24 06:14:56;;;;;;;;;;;;;;;11.50;75.59;97441.56;5033445;28;19927;-80
2023/04/24 06:17:21;;;;;;;;;;;;;;;11.37;76.04;97445.75;5026758;28;19925;-80
2023/04/24 06:19:47;;;;;;;;;;;;;;;11.34;76.42;97440.97;5028583;28;19921;-81
2023/04/24 06:22:12;;;;;;;;;;;;;;;11.30;76.71;97450.66;5036982;28;20396;-80
2023/04/24 06:24:37;;;;;;;;;;;;;;;11.27;76.74;97457.34;5020100;28;19920;-80
2023/04/24 06:27:03;;;;;;;;;;;;;;;11.16;76.33;97463.13;5035394;28;19925;-80
2023/04/24 06:29:28;;;;;;;;;;;;;;;11.25;75.52;97464.88;5031768;28;19913;-80
2023/04/24 06:31:53;;;;;;;;;;;;;;;11.27;74.96;97469.91;5030687;28;19940;-80
2023/04/24 06:34:19;;;;;;;;;;;;;;;11.27;74.69;97467.25;5015236;28;20273;-80
2023/04/24 06:36:44;;;;;;;;;;;;;;;11.33;74.63;97466.13;5033602;28;19924;-80
2023/04/24 06:39:10;;;;;;;;;;;;;;;11.33;73.75;97469.56;5036579;28;19952;-80
2023/04/24 06:41:35;;;;;;;;;;;;;;;11.23;74.51;97475.03;5038755;28;19940;-80
2023/04/24 06:44:00;;;;;;;;;;;;;;;11.50;73.40;97469.09;5032376;28;19925;-80
2023/04/24 06:46:27;;;;;;;;;;;;;;;11.33;73.59;97474.13;5014783;28;19968;-80
2023/04/24 06:48:55;;;;;;;;;;;;;;;11.23;74.74;97476.91;5029024;28;20285;-80
2023/04/24 06:51:21;;;;;;;;;;;;;;;11.20;73.74;97478.28;5013105;28;20396;-80
2023/04/24 06:53:46;;;;;;;;;;;;;;;11.33;73.78;97479.47;5016814;28;19917;-80
2023/04/24 06:56:11;;;;;;;;;;;;;;;11.27;73.30;97484.06;5030705;28;19924;-80
2023/04/24 06:58:36;;;;;;;;;;;;;;;11.37;72.97;97482.34;5022613;28;19925;-80
2023/04/24 07:01:02;;;;;;;;;;;;;;;11.49;72.64;97496.88;5039717;28;19976;-79
2023/04/24 07:03:27;;;;;;;;;;;;;;;11.42;72.32;97491.13;5041313;28;19925;-79
2023/04/24 07:05:53;;;;;;;;;;;;;;;11.29;71.20;97489.16;5030666;28;19928;-79
2023/04/24 07:08:20;;;;;;;;;;;;;;;11.41;71.39;97488.72;5039435;28;19929;-79
2023/04/24 07:10:45;;;;;;;;;;;;;;;11.50;70.95;97474.44;5037982;28;19921;-80
2023/04/24 07:13:10;;;;;;;;;;;;;;;11.53;70.40;97476.50;5015873;28;19926;-79
2023/04/24 07:15:36;;;;;;;;;;;;;;;11.56;70.21;97475.94;5011428;28;19932;-80
2023/04/24 07:18:01;;;;;;;;;;;;;;;11.74;69.10;97480.56;5023417;28;19921;-80
2023/04/24 07:20:26;;;;;;;;;;;;;;;11.78;68.39;97473.53;5042545;28;19950;-80
2023/04/24 07:22:53;;;;;;;;;;;;;;;11.91;68.63;97480.84;5038052;28;19928;-80
2023/04/24 07:25:19;;;;;;;;;;;;;;;12.10;67.99;97488.06;5050954;28;19920;-80
2023/04/24 07:27:44;;;;;;;;;;;;;;;12.11;67.34;97487.75;5042883;28;20300;-80
2023/04/24 07:30:10;;;;;;;;;;;;;;;12.02;67.85;97489.50;5027322;28;19979;-79
2023/04/24 07:32:35;;;;;;;;;;;;;;;11.94;68.24;97490.97;5032266;28;19921;-80
2023/04/24 07:35:00;;;;;;;;;;;;;;;11.90;67.24;97489.91;5043826;28;19931;-79
2023/04/24 07:37:26;;;;;;;;;;;;;;;11.91;67.21;97493.41;5039981;28;19947;-80
2023/04/24 07:39:51;;;;;;;;;;;;;;;11.92;66.89;97484.31;5028357;28;19921;-80
2023/04/24 07:42:16;;;;;;;;;;;;;;;11.96;67.43;97490.66;5026295;28;19960;-80
2023/04/24 07:44:42;;;;;;;;;;;;;;;12.03;66.97;97483.84;5043558;28;20071;-80
2023/04/24 07:47:07;;;;;;;;;;;;;;;12.07;66.95;97486.75;5038177;28;19975;-80
2023/04/24 07:49:34;;;;;;;;;;;;;;;12.07;66.38;97494.78;5041598;28;19925;-80
2023/04/24 07:52:01;;;;;;;;;;;;;;;12.09;66.25;97497.94;5036720;28;19971;-80
2023/04/24 07:54:27;;;;;;;;;;;;;;;12.06;66.56;97503.09;5041714;28;19971;-80
2023/04/24 07:56:52;;;;;;;;;;;;;;;12.00;66.59;97497.81;5029986;28;20277;-80
2023/04/24 07:59:19;;;;;;;;;;;;;;;12.02;66.10;97500.19;5029312;28;19928;-80
2023/04/24 08:01:45;;;;;;;;;;;;;;;12.10;66.57;97512.13;5027987;28;20000;-80
2023/04/24 08:04:10;;;;;;;;;;;;;;;12.26;65.61;97510.78;5043738;28;19928;-80
2023/04/24 08:06:35;;;;;;;;;;;;;;;12.28;65.54;97508.63;5034154;28;19928;-80
2023/04/24 08:09:01;;;;;;;;;;;;;;;12.21;65.44;97519.69;5042336;28;20011;-80
2023/04/24 08:11:26;;;;;;;;;;;;;;;12.28;65.83;97519.31;5034016;28;20316;-80
2023/04/24 08:13:52;;;;;;;;;;;;;;;12.33;65.26;97521.91;5028408;28;19921;-80
2023/04/24 08:16:17;;;;;;;;;;;;;;;12.27;65.16;97523.09;5034737;28;19925;-80
2023/04/24 08:18:42;;;;;;;;;;;;;;;12.16;65.62;97521.66;5039311;28;19913;-80
2023/04/24 08:21:08;;;;;;;;;;;;;;;12.20;65.78;97523.47;5034516;28;20336;-80
2023/04/24 08:23:33;;;;;;;;;;;;;;;12.21;65.36;97529.63;5035025;28;19952;-80
2023/04/24 08:25:58;;;;;;;;;;;;;;;12.23;65.60;97527.44;5025367;28;19927;-80
2023/04/24 08:28:23;;;;;;;;;;;;;;;12.29;65.61;97527.06;5049860;28;19932;-79
2023/04/24 08:30:54;;;;;;;;;;;;;;;12.39;65.03;97528.78;5045191;28;20337;-80
2023/04/24 08:33:19;;;;;;;;;;;;;;;12.45;64.57;97519.59;5017868;28;19936;-80
2023/04/24 08:35:45;;;;;;;;;;;;;;;12.51;64.64;97537.16;5033130;28;19917;-80
2023/04/24 08:38:10;;;;;;;;;;;;;;;12.61;63.21;97543.13;5025390;28;19940;-80
2023/04/24 08:40:36;;;;;;;;;;;;;;;12.62;63.49;97544.72;5019063;28;19921;-80
2023/04/24 08:43:03;;;;;;;;;;;;;;;12.61;62.02;97542.34;5024181;28;20424;-80
2023/04/24 08:45:29;;;;;;;;;;;;;;;12.61;61.52;97534.31;5039743;28;19924;-80
2023/04/24 08:47:54;;;;;;;;;;;;;;;12.67;61.97;97541.94;5017527;28;19925;-80
2023/04/24 08:50:20;;;;;;;;;;;;;;;12.70;61.58;97538.69;5015565;28;20289;-80
2023/04/24 08:52:45;;;;;;;;;;;;;;;12.67;61.83;97551.84;4998537;28;19918;-80
2023/04/24 08:55:10;;;;;;;;;;;;;;;12.69;60.77;97553.16;5015283;28;19921;-80
2023/04/24 08:57:38;;;;;;;;;;;;;;;12.67;60.85;97549.19;5016123;28;19921;-80
2023/04/24 09:00:04;;;;;;;;;;;;;;;12.67;61.34;97549.19;5028697;28;19917;-80
2023/04/24 09:02:30;;;;;;;;;;;;;;;12.75;61.92;97545.84;5039393;28;19926;-80
2023/04/24 09:04:56;;;;;;;;;;;;;;;12.89;61.21;97552.03;5036751;28;20012;-80
2023/04/24 09:07:24;;;;;;;;;;;;;;;12.88;60.97;97563.03;5036360;28;20011;-80
2023/04/24 09:09:50;;;;;;;;;;;;;;;12.88;60.89;97546.97;5044598;28;20338;-80
2023/04/24 09:12:15;;;;;;;;;;;;;;;12.90;60.27;97556.31;5053355;28;19912;-80
2023/04/24 09:14:44;;;;;;;;;;;;;;;12.82;61.05;97562.31;5037266;28;19920;-80
2023/04/24 09:17:10;;;;;;;;;;;;;;;12.78;60.41;97550.59;5037000;28;19917;-80
2023/04/24 09:19:35;;;;;;;;;;;;;;;12.71;60.41;97560.91;5022618;28;20012;-80
2023/04/24 09:22:04;;;;;;;;;;;;;;;12.66;60.67;97563.66;5012663;28;19933;-80
2023/04/24 09:24:29;;;;;;;;;;;;;;;12.65;61.12;97559.38;5041802;28;19967;-80
2023/04/24 09:26:58;;;;;;;;;;;;;;;12.54;60.86;97566.78;5033373;28;20308;-80
2023/04/24 09:29:24;;;;;;;;;;;;;;;12.45;61.33;97557.06;5041347;28;19924;-80
2023/04/24 09:31:49;;;;;;;;;;;;;;;12.53;62.04;97573.25;5049095;28;19916;-80
2023/04/24 09:34:20;;;;;;;;;;;;;;;12.56;61.84;97569.97;5054544;28;19913;-80
2023/04/24 09:36:45;;;;;;;;;;;;;;;12.64;61.85;97566.66;5054001;28;19928;-80
2023/04/24 09:39:12;;;;;;;;;;;;;;;12.48;61.89;97567.97;5041261;28;19929;-80
2023/04/24 09:41:48;;;;;;;;;;;;;;;12.48;62.09;97556.47;5053412;28;19917;-80
2023/04/24 09:44:17;;;;;;;;;;;;;;;12.34;62.04;97566.34;5036277;28;19913;-80
2023/04/24 09:46:43;;;;;;;;;;;;;;;12.40;62.33;97557.94;5032005;28;19936;-80
2023/04/24 09:49:21;;;;;;;;;;;;;;;12.56;62.25;97556.59;5033095;28;19948;-80
2023/04/24 09:51:47;;;;;;;;;;;;;;;12.41;62.85;97556.03;5035500;28;19925;-80
2023/04/24 09:54:16;;;;;;;;;;;;;;;12.33;62.77;97554.81;5032842;28;20152;-80
2023/04/24 09:56:45;;;;;;;;;;;;;;;12.45;62.41;97543.69;5022628;28;19945;-80
2023/04/24 09:59:11;;;;;;;;;;;;;;;12.40;62.81;97549.09;5040248;28;19917;-80
2023/04/24 10:01:38;;;;;;;;;;;;;;;12.37;62.28;97545.13;5052666;28;19912;-80
2023/04/24 10:04:03;;;;;;;;;;;;;;;12.46;62.74;97547.94;5044113;28;19964;-80
2023/04/24 10:06:35;;;;;;;;;;;;;;;12.66;61.90;97548.41;5053649;28;19971;-80
2023/04/24 10:09:01;;;;;;;;;;;;;;;12.80;60.77;97549.22;5033614;28;19913;-80
2023/04/24 10:11:26;;;;;;;;;;;;;;;12.91;60.64;97549.84;5022324;28;20348;-80
2023/04/24 10:13:52;;;;;;;;;;;;;;;12.95;60.03;97547.38;5028583;28;19982;-80
2023/04/24 10:16:18;;;;;;;;;;;;;;;12.86;60.52;97549.16;5040348;28;19921;-80
2023/04/24 10:18:43;;;;;;;;;;;;;;;12.84;60.15;97552.13;5022123;28;19916;-79
2023/04/24 10:21:09;;;;;;;;;;;;;;;12.84;59.68;97546.78;5043405;28;19924;-80
2023/04/24 10:23:35;;;;;;;;;;;;;;;13.00;59.13;97536.56;5040957;28;19964;-80
2023/04/24 10:26:01;;;;;;;;;;;;;;;13.08;60.08;97547.44;5039712;28;19921;-80
2023/04/24 10:28:27;;;;;;;;;;;;;;;13.18;59.35;97551.81;5042216;28;19924;-80
2023/04/24 10:30:54;;;;;;;;;;;;;;;13.22;59.89;97556.28;5037515;28;20300;-80
2023/04/24 10:33:21;;;;;;;;;;;;;;;13.26;60.22;97554.59;5051599;28;19924;-80
2023/04/24 10:35:48;;;;;;;;;;;;;;;13.27;60.58;97555.38;5051957;28;19920;-80
2023/04/24 10:38:16;;;;;;;;;;;;;;;13.38;61.12;97538.03;5052775;28;19913;-80
2023/04/24 10:40:42;;;;;;;;;;;;;;;13.44;61.20;97548.34;5052789;28;20379;-80
2023/04/24 10:43:10;;;;;;;;;;;;;;;13.46;61.20;97535.44;5045765;28;19913;-80
2023/04/24 10:45:35;;;;;;;;;;;;;;;13.61;60.15;97547.72;5015763;28;19948;-80
2023/04/24 10:48:10;;;;;;;;;;;;;;;13.65;59.44;97540.66;5034708;28;19924;-80
2023/04/24 10:50:41;;;;;;;;;;;;;;;13.75;59.45;97539.69;5034015;28;19925;-80
2023/04/24 10:53:11;;;;;;;;;;;;;;;13.82;58.77;97545.44;5039182;28;19920;-80
2023/04/24 10:55:43;;;;;;;;;;;;;;;13.82;58.59;97540.06;5041260;28;19924;-80
2023/04/24 10:58:08;;;;;;;;;;;;;;;13.90;58.75;97545.50;5039686;28;19970;-80
2023/04/24 11:00:36;;;;;;;;;;;;;;;13.80;58.92;97571.75;5039868;28;20364;-80
2023/04/24 11:03:04;;;;;;;;;;;;;;;13.76;59.22;97565.41;5023534;28;20065;-80
2023/04/24 11:05:48;;;;;;;;;;;;;;;13.72;59.82;97564.41;5032612;28;20119;-80
2023/04/24 11:08:15;;;;;;;;;;;;;;;13.73;60.39;97572.16;5030744;28;20377;-80
2023/04/24 11:10:44;;;;;;;;;;;;;;;13.79;60.52;97570.16;5025922;28;20375;-80
2023/04/24 11:13:09;;;;;;;;;;;;;;;13.79;60.41;97564.78;5045896;28;20584;-80
2023/04/24 11:15:34;;;;;;;;;;;;;;;13.85;60.29;97556.34;5013179;28;19972;-80
2023/04/24 11:18:00;;;;;;;;;;;;;;;13.95;60.24;97563.38;5011648;28;20020;-80
2023/04/24 11:20:26;;;;;;;;;;;;;;;13.90;60.19;97561.59;5037183;28;19917;-80
2023/04/24 11:22:52;;;;;;;;;;;;;;;14.13;59.70;97565.16;5028193;28;19932;-80
2023/04/24 11:25:18;;;;;;;;;;;;;;;14.28;59.89;97565.56;5029588;28;20036;-80
2023/04/24 11:27:45;;;;;;;;;;;;;;;14.24;60.22;97585.28;5037328;28;19933;-80
2023/04/24 11:30:10;;;;;;;;;;;;;;;13.90;61.57;97585.75;5025658;28;19917;-80
2023/04/24 11:32:37;;;;;;;;;;;;;;;13.69;62.44;97603.34;5036256;28;20296;-80
2023/04/24 11:35:08;;;;;;;;;;;;;;;13.23;65.53;97605.31;5040351;28;19917;-80
2023/04/24 11:37:40;;;;;;;;;;;;;;;13.01;67.26;97602.44;5041288;28;20446;-79
2023/04/24 11:40:07;;;;;;;;;;;;;;;12.79;68.22;97595.84;5037715;28;20306;-79
2023/04/24 11:42:36;;;;;;;;;;;;;;;12.25;71.03;97597.50;5019062;28;19956;-79
2023/04/24 11:45:06;;;;;;;;;;;;;;;12.42;73.30;97603.94;5028565;28;19935;-80
2023/04/24 11:47:33;;;;;;;;;;;;;;;12.62;73.40;97605.50;5017311;28;19960;-80
2023/04/24 11:49:59;;;;;;;;;;;;;;;12.80;73.90;97591.25;5031524;28;19952;-80
2023/04/24 11:52:24;;;;;;;;;;;;;;;12.70;74.93;97607.50;5025074;28;20493;-80
2023/04/24 11:54:50;;;;;;;;;;;;;;;12.78;74.40;97610.31;5027599;28;20064;-80
2023/04/24 11:57:15;;;;;;;;;;;;;;;12.69;73.94;97617.41;5020183;28;19923;-80
2023/04/24 11:59:41;;;;;;;;;;;;;;;12.88;73.61;97616.59;5011354;28;19921;-80
2023/04/24 12:02:06;;;;;;;;;;;;;;;12.88;73.21;97612.03;5025631;28;20373;-80
2023/04/24 12:04:38;;;;;;;;;;;;;;;12.81;73.58;97611.63;5031634;28;19968;-81
2023/04/24 12:07:04;;;;;;;;;;;;;;;12.75;73.28;97612.78;5029623;28;19936;-80
2023/04/24 12:09:43;;;;;;;;;;;;;;;12.73;72.78;97626.44;5027928;28;19925;-80
2023/04/24 12:12:09;;;;;;;;;;;;;;;12.64;71.84;97619.38;5030376;28;19929;-80
2023/04/24 12:14:52;;;;;;;;;;;;;;;12.68;71.15;97628.44;5030615;28;19924;-81
2023/04/24 12:17:17;;;;;;;;;;;;;;;12.77;69.39;97635.50;5013978;28;19920;-80
2023/04/24 12:19:47;;;;;;;;;;;;;;;12.69;67.99;97633.47;5024527;28;19918;-81
2023/04/24 12:22:12;;;;;;;;;;;;;;;12.68;68.26;97653.31;5034153;28;20007;-80
2023/04/24 12:24:56;;;;;;;;;;;;;;;12.71;67.53;97652.72;5031611;28;20051;-80
2023/04/24 12:27:21;;;;;;;;;;;;;;;12.62;67.27;97654.47;5032159;28;19929;-80
2023/04/24 12:29:57;;;;;;;;;;;;;;;12.65;66.88;97661.13;5030716;28;19927;-80
2023/04/24 12:32:22;;;;;;;;;;;;;;;12.60;66.60;97669.25;5032598;28;19921;-80
2023/04/24 12:34:49;;;;;;;;;;;;;;;12.29;66.46;97692.16;5027145;28;19916;-80
2023/04/24 12:37:14;;;;;;;;;;;;;;;12.18;66.03;97674.63;5025569;28;19923;-80
2023/04/24 12:39:44;;;;;;;;;;;;;;;12.20;66.37;97680.47;5032023;28;19925;-80
2023/04/24 12:42:09;;;;;;;;;;;;;;;12.30;65.55;97694.53;5029575;28;20005;-80